createdAt,value
2022-12-13T00:00:53.902Z,16.45
2022-12-13T00:03:24.506Z,15.27
2022-12-13T00:05:55.122Z,16.55
2022-12-13T00:08:24.976Z,15.32
2022-12-13T00:11:01.349Z,15.65
2022-12-13T00:13:30.836Z,16.27
2022-12-13T00:16:02.902Z,16.77
2022-12-13T00:18:32.284Z,15.40
2022-12-13T00:21:02.258Z,16.10
2022-12-13T00:23:31.623Z,14.82
2022-12-13T00:26:04.271Z,17.73
2022-12-13T00:28:33.796Z,16.42
2022-12-13T00:31:43.149Z,16.30
2022-12-13T00:33:55.736Z,19.13
2022-12-13T00:36:25.552Z,14.60
2022-12-13T00:39:01.935Z,17.25
2022-12-13T00:41:32.808Z,19.23
2022-12-13T00:44:02.730Z,18.25
2022-12-13T00:46:34.050Z,17.75
2022-12-13T00:49:03.402Z,16.88
2022-12-13T00:51:34.029Z,18.05
2022-12-13T00:54:04.994Z,16.05
2022-12-13T00:56:35.059Z,20.50
2022-12-13T00:59:04.734Z,17.50
2022-12-13T01:01:36.704Z,16.63
2022-12-13T01:04:08.119Z,18.08
2022-12-13T01:06:39.165Z,15.80
2022-12-13T01:09:11.301Z,15.52
2022-12-13T01:11:41.119Z,17.88
2022-12-13T01:14:12.037Z,18.88
2022-12-13T01:16:43.189Z,16.95
2022-12-13T01:19:13.004Z,18.02
2022-12-13T01:21:42.610Z,16.38
2022-12-13T01:24:13.078Z,19.70
2022-12-13T01:26:43.338Z,17.25
2022-12-13T01:29:12.810Z,18.52
2022-12-13T01:31:44.755Z,19.55
2022-12-13T01:34:15.314Z,19.33
2022-12-13T01:36:45.704Z,19.13
2022-12-13T01:39:15.943Z,18.50
2022-12-13T01:41:46.737Z,18.15
2022-12-13T01:44:35.559Z,18.23
2022-12-13T01:47:06.740Z,18.08
2022-12-13T01:49:36.533Z,20.77
2022-12-13T01:52:08.316Z,16.90
2022-12-13T01:54:46.901Z,15.88
2022-12-13T01:57:18.791Z,18.52
2022-12-13T01:59:49.413Z,16.85
2022-12-13T02:02:25.563Z,16.20
2022-12-13T02:05:02.440Z,17.80
2022-12-13T02:07:34.257Z,18.20
2022-12-13T02:10:05.739Z,19.02
2022-12-13T02:15:09.153Z,18.52
2022-12-13T02:17:49.481Z,17.00
2022-12-13T02:20:34.011Z,16.35
2022-12-13T02:23:13.837Z,15.70
2022-12-13T02:25:48.702Z,16.40
2022-12-13T02:28:31.550Z,18.52
2022-12-13T02:31:06.667Z,19.13
2022-12-13T02:33:41.278Z,17.75
2022-12-13T02:36:14.893Z,16.75
2022-12-13T02:38:50.749Z,17.00
2022-12-13T02:41:26.086Z,16.50
2022-12-13T02:44:01.448Z,15.15
2022-12-13T02:46:35.010Z,19.08
2022-12-13T02:49:05.577Z,18.92
2022-12-13T02:51:35.122Z,17.52
2022-12-13T02:54:04.739Z,17.33
2022-12-13T02:56:34.208Z,17.98
2022-12-13T02:59:07.571Z,17.15
2022-12-13T03:01:48.024Z,17.60
2022-12-13T03:04:26.508Z,16.50
2022-12-13T03:07:00.152Z,15.45
2022-12-13T03:09:36.424Z,16.48
2022-12-13T03:12:42.469Z,14.57
2022-12-13T03:15:16.770Z,16.70
2022-12-13T03:17:52.085Z,15.98
2022-12-13T03:20:25.090Z,15.57
2022-12-13T03:22:55.095Z,16.08
2022-12-13T03:25:30.609Z,15.50
2022-12-13T03:28:02.687Z,13.40
2022-12-13T03:30:33.128Z,14.95
2022-12-13T03:33:04.998Z,15.13
2022-12-13T03:35:45.010Z,13.93
2022-12-13T03:38:21.930Z,15.35
2022-12-13T03:40:53.390Z,14.35
2022-12-13T03:43:24.845Z,12.80
2022-12-13T03:46:01.624Z,12.75
2022-12-13T03:48:33.669Z,13.38
2022-12-13T03:51:05.511Z,11.48
2022-12-13T03:53:37.615Z,11.63
2022-12-13T03:56:09.327Z,12.10
2022-12-13T03:58:39.225Z,11.90
2022-12-13T04:01:10.046Z,11.02
2022-12-13T04:03:42.661Z,12.15
2022-12-13T04:06:22.165Z,10.35
2022-12-13T04:08:53.637Z,11.23
2022-12-13T04:11:42.661Z,12.75
2022-12-13T04:14:22.237Z,13.05
2022-12-13T04:16:53.544Z,14.20
2022-12-13T04:19:24.667Z,13.57
2022-12-13T04:21:54.717Z,13.32
2022-12-13T04:24:30.988Z,12.70
2022-12-13T04:27:02.060Z,13.73
2022-12-13T04:29:33.865Z,12.57
2022-12-13T04:32:26.811Z,12.32
2022-12-13T04:35:00.794Z,13.27
2022-12-13T04:37:32.006Z,13.60
2022-12-13T04:40:01.516Z,12.98
2022-12-13T04:45:21.940Z,14.07
2022-12-13T04:47:53.495Z,14.35
2022-12-13T04:50:24.842Z,14.73
2022-12-13T04:52:58.004Z,14.77
2022-12-13T04:55:29.738Z,12.80
2022-12-13T04:57:59.856Z,14.95
2022-12-13T05:00:29.653Z,13.57
2022-12-13T05:02:59.863Z,13.30
2022-12-13T05:05:30.784Z,12.25
2022-12-13T05:08:03.077Z,13.57
2022-12-13T05:10:37.836Z,12.90
2022-12-13T05:13:08.763Z,14.10
2022-12-13T05:15:38.026Z,13.07
2022-12-13T05:18:09.473Z,12.82
2022-12-13T05:20:42.075Z,12.55
2022-12-13T05:23:11.580Z,13.63
2022-12-13T05:25:42.951Z,13.95
2022-12-13T05:31:01.313Z,12.18
2022-12-13T05:33:32.313Z,13.45
2022-12-13T05:36:03.486Z,13.82
2022-12-13T05:38:33.773Z,12.88
2022-12-13T05:41:05.039Z,11.23
2022-12-13T05:43:42.179Z,13.70
2022-12-13T05:46:14.116Z,11.27
2022-12-13T05:48:45.009Z,11.10
2022-12-13T05:51:19.217Z,10.95
2022-12-13T05:53:53.405Z,11.10
2022-12-13T05:56:23.808Z,11.50
2022-12-13T05:58:55.733Z,10.68
2022-12-13T06:01:26.808Z,10.68
2022-12-13T06:03:58.034Z,11.10
2022-12-13T06:06:29.894Z,9.73
2022-12-13T06:09:01.772Z,10.75
2022-12-13T06:11:32.705Z,11.10
2022-12-13T06:14:02.785Z,10.68
2022-12-13T06:16:32.975Z,9.63
2022-12-13T06:19:04.522Z,11.13
2022-12-13T06:21:41.769Z,11.32
2022-12-13T06:24:16.683Z,10.32
2022-12-13T06:26:47.609Z,10.65
2022-12-13T06:29:24.265Z,9.45
2022-12-13T06:32:02.542Z,10.10
2022-12-13T06:34:35.976Z,10.00
2022-12-13T06:37:14.529Z,10.35
2022-12-13T06:39:44.762Z,9.10
2022-12-13T06:42:21.647Z,10.00
2022-12-13T06:44:55.968Z,10.07
2022-12-13T06:47:31.287Z,9.90
2022-12-13T06:50:05.288Z,9.98
2022-12-13T06:52:44.972Z,9.23
2022-12-13T06:55:43.424Z,9.02
2022-12-13T06:58:13.654Z,9.80
2022-12-13T07:00:49.070Z,10.07
2022-12-13T07:03:21.359Z,10.45
2022-12-13T07:05:56.817Z,10.10
2022-12-13T07:09:20.181Z,10.20
2022-12-13T07:21:22.080Z,10.07
2022-12-13T07:24:03.507Z,8.73
2022-12-13T07:26:34.537Z,9.70
2022-12-13T07:29:06.997Z,9.57
2022-12-13T07:31:38.657Z,9.38
2022-12-13T07:34:15.351Z,11.70
2022-12-13T07:36:46.766Z,10.48
2022-12-13T07:39:18.227Z,11.70
2022-12-13T07:41:50.966Z,11.07
2022-12-13T07:44:22.700Z,13.05
2022-12-13T07:47:04.917Z,12.43
2022-12-13T07:49:41.055Z,11.18
2022-12-13T07:52:15.066Z,12.23
2022-12-13T07:54:47.414Z,10.95
2022-12-13T07:57:19.472Z,11.23
2022-12-13T07:59:50.590Z,11.95
2022-12-13T08:02:20.674Z,11.38
2022-12-13T08:04:55.029Z,10.95
2022-12-13T08:07:32.837Z,13.05
2022-12-13T08:10:04.200Z,10.45
2022-12-13T08:12:43.600Z,11.80
2022-12-13T08:15:15.006Z,11.07
2022-12-13T08:20:13.929Z,11.35
2022-12-13T08:23:02.148Z,11.38
2022-12-13T08:25:35.547Z,12.00
2022-12-13T08:28:05.778Z,11.95
2022-12-13T08:30:36.859Z,11.82
2022-12-13T08:33:06.139Z,12.05
2022-12-13T08:35:36.472Z,11.35
2022-12-13T08:38:07.241Z,11.30
2022-12-13T08:40:39.233Z,11.00
2022-12-13T08:43:08.954Z,11.47
2022-12-13T08:45:40.027Z,11.85
2022-12-13T08:48:09.613Z,10.98
2022-12-13T08:50:39.144Z,10.77
2022-12-13T08:53:09.696Z,9.90
2022-12-13T08:56:02.623Z,9.60
2022-12-13T08:58:32.015Z,10.60
2022-12-13T09:01:03.196Z,11.07
2022-12-13T09:03:32.590Z,11.50
2022-12-13T09:06:07.544Z,10.75
2022-12-13T09:08:36.643Z,9.65
2022-12-13T09:11:10.840Z,9.60
2022-12-13T09:13:52.303Z,9.35
2022-12-13T09:16:36.522Z,9.02
2022-12-13T09:19:24.976Z,8.73
2022-12-13T09:22:02.035Z,10.77
2022-12-13T09:24:36.639Z,9.70
2022-12-13T09:27:09.798Z,9.05
2022-12-13T09:29:40.293Z,7.47
2022-12-13T09:32:11.130Z,8.63
2022-12-13T09:34:40.372Z,8.97
2022-12-13T09:37:12.119Z,8.95
2022-12-13T09:42:16.151Z,9.85
2022-12-13T09:45:03.320Z,8.75
2022-12-13T09:47:37.045Z,9.63
2022-12-13T09:50:15.109Z,10.00
2022-12-13T09:52:46.414Z,9.55
2022-12-13T09:55:22.559Z,8.23
2022-12-13T09:57:53.747Z,8.15
2022-12-13T10:00:24.137Z,9.02
2022-12-13T10:02:57.350Z,9.70
2022-12-13T10:05:35.904Z,8.07
2022-12-13T10:08:10.305Z,8.40
2022-12-13T10:10:47.852Z,7.43
2022-12-13T10:13:20.643Z,7.43
2022-12-13T10:15:53.009Z,8.38
2022-12-13T10:18:28.786Z,8.25
2022-12-13T10:20:58.296Z,8.32
2022-12-13T10:23:52.958Z,8.63
2022-12-13T10:26:24.501Z,7.32
2022-12-13T10:29:03.097Z,7.13
2022-12-13T10:31:32.357Z,8.15
2022-12-13T10:34:03.042Z,6.88
2022-12-13T10:36:34.583Z,6.82
2022-12-13T10:39:04.631Z,7.63
2022-12-13T10:41:35.330Z,8.25
2022-12-13T10:44:17.007Z,7.47
2022-12-13T10:49:20.074Z,5.63
2022-12-13T10:51:50.487Z,7.90
2022-12-13T10:54:25.478Z,7.97
2022-12-13T10:57:00.271Z,8.68
2022-12-13T10:59:33.927Z,7.40
2022-12-13T11:02:04.480Z,7.55
2022-12-13T11:04:36.244Z,8.07
2022-12-13T11:09:38.402Z,6.22
2022-12-13T11:12:15.618Z,7.05
2022-12-13T11:14:52.776Z,7.93
2022-12-13T11:17:28.981Z,6.00
2022-12-13T11:20:04.405Z,7.38
2022-12-13T11:22:36.701Z,8.35
2022-12-13T11:25:09.624Z,8.55
2022-12-13T11:27:57.783Z,9.10
2022-12-13T11:30:35.063Z,8.73
2022-12-13T11:33:32.946Z,9.48
2022-12-13T11:36:18.029Z,9.98
2022-12-13T11:38:57.958Z,8.48
2022-12-13T11:41:31.904Z,8.63
2022-12-13T11:44:12.674Z,9.20
2022-12-13T11:46:44.203Z,8.80
2022-12-13T11:49:22.373Z,8.05
2022-12-13T11:51:58.253Z,7.38
2022-12-13T11:54:35.057Z,7.55
2022-12-13T11:57:08.007Z,6.72
2022-12-13T11:59:42.493Z,6.68
2022-12-13T12:02:17.619Z,8.38
2022-12-13T12:04:58.354Z,8.75
2022-12-13T12:08:21.153Z,6.88
2022-12-13T12:10:49.837Z,8.32
2022-12-13T12:13:22.178Z,8.32
2022-12-13T12:15:59.411Z,8.27
2022-12-13T12:18:29.256Z,7.50
2022-12-13T12:21:06.330Z,8.43
2022-12-13T12:23:48.370Z,7.40
2022-12-13T12:26:22.798Z,9.63
2022-12-13T12:31:27.376Z,9.25
2022-12-13T12:34:03.303Z,10.20
2022-12-13T12:36:42.369Z,9.45
2022-12-13T12:39:30.284Z,9.60
2022-12-13T12:42:08.876Z,10.15
2022-12-13T12:44:46.419Z,9.93
2022-12-13T12:50:32.000Z,10.60
2022-12-13T12:53:13.695Z,13.05
2022-12-13T12:55:50.369Z,11.98
2022-12-13T12:58:26.082Z,10.98
2022-12-13T13:01:02.584Z,11.13
2022-12-13T13:03:33.477Z,10.07
2022-12-13T13:06:04.533Z,11.93
2022-12-13T13:08:36.122Z,9.07
2022-12-13T13:13:47.363Z,9.00
2022-12-13T13:16:37.669Z,9.57
2022-12-13T13:19:09.035Z,8.60
2022-12-13T13:21:45.926Z,8.23
2022-12-13T13:24:16.451Z,7.70
2022-12-13T13:26:46.904Z,7.45
2022-12-13T13:29:27.543Z,8.82
2022-12-13T13:32:01.853Z,7.53
2022-12-13T13:34:35.812Z,7.55
2022-12-13T13:37:05.839Z,7.47
2022-12-13T13:39:56.634Z,7.53
2022-12-13T13:42:25.980Z,8.35
2022-12-13T13:44:58.271Z,8.25
2022-12-13T13:47:33.683Z,8.27
2022-12-13T13:50:05.411Z,7.20
2022-12-13T13:52:39.225Z,9.23
2022-12-13T13:55:19.239Z,9.32
2022-12-13T13:58:21.621Z,8.52
2022-12-13T14:01:09.704Z,10.52
2022-12-13T14:04:04.680Z,8.77
2022-12-13T14:06:53.337Z,8.68
2022-12-13T14:09:48.495Z,9.40
2022-12-13T14:12:39.826Z,9.35
2022-12-13T14:15:25.968Z,9.25
2022-12-13T14:18:30.935Z,9.73
2022-12-13T14:21:06.458Z,8.57
2022-12-13T14:23:41.103Z,9.63
2022-12-13T14:26:18.939Z,9.68
2022-12-13T14:28:49.882Z,10.13
2022-12-13T14:31:26.710Z,12.20
2022-12-13T14:34:01.660Z,12.13
2022-12-13T14:37:06.556Z,13.55
2022-12-13T14:39:36.164Z,13.40
2022-12-13T14:42:24.380Z,13.70
2022-12-13T14:44:56.491Z,12.48
2022-12-13T14:47:26.123Z,14.15
2022-12-13T14:50:02.285Z,12.90
2022-12-13T14:52:37.926Z,13.02
2022-12-13T14:55:09.217Z,13.70
2022-12-13T14:57:41.300Z,13.88
2022-12-13T15:00:23.741Z,12.65
2022-12-13T15:02:54.092Z,12.20
2022-12-13T15:05:28.662Z,12.70
2022-12-13T15:07:59.028Z,13.57
2022-12-13T15:10:36.599Z,13.93
2022-12-13T15:13:06.868Z,13.20
2022-12-13T15:15:37.363Z,12.13
2022-12-13T15:18:17.844Z,12.77
2022-12-13T15:20:52.113Z,12.38
2022-12-13T15:23:26.173Z,14.27
2022-12-13T15:26:00.879Z,12.57
2022-12-13T15:28:31.227Z,12.95
2022-12-13T15:31:01.374Z,12.88
2022-12-13T15:33:35.390Z,12.80
2022-12-13T15:36:12.371Z,12.38
2022-12-13T15:38:42.851Z,12.43
2022-12-13T15:41:17.486Z,13.70
2022-12-13T15:43:47.870Z,12.52
2022-12-13T15:46:24.914Z,12.80
2022-12-13T15:48:54.653Z,13.45
2022-12-13T15:51:28.878Z,14.88
2022-12-13T15:54:05.170Z,11.82
2022-12-13T15:56:36.023Z,11.07
2022-12-13T15:59:06.268Z,11.45
2022-12-13T16:01:36.738Z,12.07
2022-12-13T16:04:06.427Z,11.10
2022-12-13T16:06:36.994Z,11.50
2022-12-13T16:09:08.028Z,10.40
2022-12-13T16:11:39.725Z,10.70
2022-12-13T16:14:27.424Z,11.00
2022-12-13T16:16:57.567Z,11.07
2022-12-13T16:19:26.836Z,11.05
2022-12-13T16:21:57.481Z,13.00
2022-12-13T16:24:26.781Z,13.85
2022-12-13T16:26:56.164Z,11.95
2022-12-13T16:29:25.274Z,11.57
2022-12-13T16:32:01.522Z,10.63
2022-12-13T16:34:37.722Z,10.82
2022-12-13T16:37:26.281Z,11.77
2022-12-13T16:39:57.655Z,12.07
2022-12-13T16:42:27.417Z,10.38
2022-12-13T16:45:24.736Z,11.35
2022-12-13T16:47:49.523Z,12.75
2022-12-13T16:50:19.745Z,12.45
2022-12-13T16:52:50.287Z,12.38
2022-12-13T16:55:19.490Z,13.65
2022-12-13T16:57:59.486Z,16.58
2022-12-13T17:00:28.676Z,14.40
2022-12-13T17:02:58.568Z,15.23
2022-12-13T17:05:31.087Z,12.68
2022-12-13T17:08:01.971Z,11.93
2022-12-13T17:10:34.357Z,12.27
2022-12-13T17:13:03.852Z,11.18
2022-12-13T17:15:34.284Z,12.38
2022-12-13T17:18:03.762Z,12.50
2022-12-13T17:20:34.732Z,10.98
2022-12-13T17:23:07.049Z,11.38
2022-12-13T17:25:40.196Z,11.98
2022-12-13T17:28:10.177Z,15.88
2022-12-13T17:30:40.630Z,16.95
2022-12-13T17:33:13.311Z,19.98
2022-12-13T17:35:42.737Z,20.20
2022-12-13T17:38:15.193Z,20.90
2022-12-13T17:40:51.009Z,22.55
2022-12-13T17:43:32.943Z,27.83
2022-12-13T17:46:04.453Z,31.92
2022-12-13T17:48:40.236Z,29.75
2022-12-13T17:51:10.749Z,30.45
2022-12-13T17:53:42.615Z,31.75
2022-12-13T17:56:13.669Z,29.35
2022-12-13T17:58:43.802Z,25.15
2022-12-13T18:01:13.872Z,21.13
2022-12-13T18:03:43.236Z,19.10
2022-12-13T18:06:12.980Z,17.05
2022-12-13T18:08:44.608Z,15.68
2022-12-13T18:14:03.475Z,19.30
2022-12-13T18:16:38.490Z,21.33
2022-12-13T18:19:09.528Z,18.90
2022-12-13T18:21:39.367Z,26.52
2022-12-13T18:24:11.641Z,29.05
2022-12-13T18:26:41.269Z,27.50
2022-12-13T18:29:10.578Z,31.05
2022-12-13T18:31:40.187Z,32.15
2022-12-13T18:34:09.780Z,32.42
2022-12-13T18:36:39.983Z,30.95
2022-12-13T18:39:10.750Z,31.15
2022-12-13T18:41:40.452Z,31.35
2022-12-13T18:44:09.848Z,30.73
2022-12-13T18:46:44.703Z,32.05
2022-12-13T18:49:15.199Z,31.58
2022-12-13T18:51:44.796Z,28.95
2022-12-13T18:54:15.494Z,28.42
2022-12-13T18:56:44.553Z,28.52
2022-12-13T18:59:14.097Z,30.52
2022-12-13T19:01:45.546Z,27.83
2022-12-13T19:04:14.641Z,30.80
2022-12-13T19:06:43.834Z,26.52
2022-12-13T19:09:17.669Z,25.90
2022-12-13T19:11:46.890Z,28.40
2022-12-13T19:14:16.220Z,25.48
2022-12-13T19:16:46.682Z,26.85
2022-12-13T19:19:16.826Z,24.90
2022-12-13T19:21:46.141Z,23.63
2022-12-13T19:24:18.331Z,23.15
2022-12-13T19:26:48.391Z,22.35
2022-12-13T19:29:17.635Z,23.58
2022-12-13T19:31:46.839Z,23.50
2022-12-13T19:34:16.313Z,21.77
2022-12-13T19:36:45.330Z,21.85
2022-12-13T19:39:16.512Z,21.13
2022-12-13T19:41:45.855Z,24.70
2022-12-13T19:44:15.061Z,30.73
2022-12-13T19:46:48.271Z,31.77
2022-12-13T19:49:17.796Z,28.63
2022-12-13T19:51:47.198Z,28.30
2022-12-13T19:54:17.885Z,27.35
2022-12-13T19:56:47.352Z,16.67
2022-12-13T19:59:16.741Z,20.63
2022-12-13T20:01:46.355Z,19.08
2022-12-13T20:04:15.814Z,19.88
2022-12-13T20:06:46.654Z,18.30
2022-12-13T20:09:17.941Z,18.33
2022-12-13T20:11:47.182Z,18.77
2022-12-13T20:14:17.904Z,18.90
2022-12-13T20:16:47.783Z,21.20
2022-12-13T20:19:21.246Z,18.63
2022-12-13T20:21:56.952Z,19.65
2022-12-13T20:24:29.306Z,20.35
2022-12-13T20:26:58.622Z,19.38
2022-12-13T20:29:27.787Z,20.05
2022-12-13T20:31:58.596Z,20.05
2022-12-13T20:34:28.071Z,19.55
2022-12-13T20:36:57.363Z,20.08
2022-12-13T20:39:27.904Z,21.83
2022-12-13T20:41:57.006Z,21.13
2022-12-13T20:44:27.256Z,21.70
2022-12-13T20:46:57.021Z,22.55
2022-12-13T20:49:26.861Z,22.73
2022-12-13T20:51:55.879Z,21.65
2022-12-13T20:54:25.064Z,18.92
2022-12-13T20:56:56.031Z,20.27
2022-12-13T20:59:25.427Z,19.27
2022-12-13T21:01:57.992Z,19.00
2022-12-13T21:04:36.820Z,18.98
2022-12-13T21:07:06.516Z,20.08
2022-12-13T21:09:35.880Z,17.35
2022-12-13T21:12:06.792Z,17.83
2022-12-13T21:14:36.782Z,17.10
2022-12-13T21:17:09.749Z,16.08
2022-12-13T21:19:41.021Z,15.68
2022-12-13T21:22:10.408Z,14.18
2022-12-13T21:24:40.053Z,14.10
2022-12-13T21:27:11.248Z,15.60
2022-12-13T21:29:43.056Z,15.43
2022-12-13T21:34:48.405Z,14.35
2022-12-13T21:37:24.968Z,15.13
2022-12-13T21:39:55.001Z,17.35
2022-12-13T21:42:25.656Z,17.67
2022-12-13T21:45:06.651Z,17.52
2022-12-13T21:47:41.470Z,18.67
2022-12-13T21:50:26.463Z,18.85
2022-12-13T21:52:57.117Z,19.92
2022-12-13T21:55:41.701Z,20.02
2022-12-13T21:58:31.409Z,24.58
2022-12-13T22:01:00.765Z,24.42
2022-12-13T22:03:30.483Z,24.23
2022-12-13T22:05:59.655Z,23.55
2022-12-13T22:08:29.268Z,20.55
2022-12-13T22:11:21.472Z,18.20
2022-12-13T22:13:54.607Z,17.50
2022-12-13T22:16:24.053Z,17.02
2022-12-13T22:18:56.104Z,17.10
2022-12-13T22:21:26.288Z,16.65
2022-12-13T22:23:56.630Z,17.23
2022-12-13T22:26:26.855Z,18.10
2022-12-13T22:28:59.491Z,14.93
2022-12-13T22:31:30.471Z,14.55
2022-12-13T22:34:00.188Z,17.30
2022-12-13T22:36:29.506Z,16.17
2022-12-13T22:38:58.771Z,16.95
2022-12-13T22:41:27.980Z,16.05
2022-12-13T22:43:58.660Z,15.85
2022-12-13T22:46:28.886Z,17.50
2022-12-13T22:48:58.041Z,18.65
2022-12-13T22:51:28.020Z,19.30
2022-12-13T22:53:57.571Z,18.73
2022-12-13T22:56:26.823Z,19.13
2022-12-13T22:58:59.427Z,17.88
2022-12-13T23:01:31.871Z,18.02
2022-12-13T23:04:06.447Z,16.73
2022-12-13T23:06:38.285Z,17.38
2022-12-13T23:09:12.902Z,16.27
2022-12-13T23:12:00.474Z,17.95
2022-12-13T23:14:32.436Z,17.52
2022-12-13T23:19:50.488Z,16.75
2022-12-13T23:22:23.098Z,17.40
2022-12-13T23:24:53.786Z,16.50
2022-12-13T23:27:27.994Z,18.85
2022-12-13T23:29:59.943Z,18.70
2022-12-13T23:32:30.037Z,16.27
2022-12-13T23:34:59.850Z,17.10
2022-12-13T23:37:30.085Z,15.40
2022-12-13T23:39:59.734Z,15.32
2022-12-13T23:42:32.332Z,15.45
2022-12-13T23:45:04.666Z,16.33
2022-12-13T23:47:34.182Z,15.98
2022-12-13T23:50:04.445Z,15.45
2022-12-13T23:52:34.402Z,18.95
2022-12-13T23:55:03.777Z,16.52
2022-12-13T23:57:33.377Z,16.30
